Time;durP1;ratioP1;P1;durP2;ratioP2;P2;SDS_P1;SDS_P2;PMS_P1;PMS_P2;Temp;Humidity;BMP_temperature;BMP_pressure;BME280_temperature;BME280_humidity;BME280_pressure;Samples;Min_cycle;Max_cycle;Signal;HPM_P1;HPM_P2
2024/03/04 00:00:31;;;;;;;;;;;;;;;;;;2216723;66;1933;-85
2024/03/04 00:03:01;;;;;;;;;;;;;;;;;;2218592;66;1419;-85
2024/03/04 00:05:35;;;;;;;;;;;;;;;;;;2214557;66;1550;-87
2024/03/04 00:08:05;;;;;;;;;;;;;;;;;;2214500;59;1528;-85
2024/03/04 00:10:35;;;;;;;;;;;;;;;;;;2214314;66;1513;-86
2024/03/04 00:13:06;;;;;;;;;;;;;;;;;;2214750;66;1520;-85
2024/03/04 00:15:36;;;;;;;;;;;;;;;;;;2213970;66;2005;-86
2024/03/04 00:18:07;;;;;;;;;;;;;;;;;;2210574;67;1555;-85
2024/03/04 00:20:37;;;;;;;;;;;;;;;;;;2210540;66;1993;-86
2024/03/04 00:23:07;;;;;;;;;;;;;;;;;;2214472;66;1846;-86
2024/03/04 00:25:37;;;;;;;;;;;;;;;;;;2214148;66;1768;-85
2024/03/04 00:28:09;;;;;;;;;;;;;;;;;;2214495;66;1472;-86
2024/03/04 00:30:41;;;;;;;;;;;;;;;;;;2214478;66;1159;-86
2024/03/04 00:33:12;;;;;;;;;;;;;;;;;;2210894;59;2042;-86
2024/03/04 00:35:43;;;;;;;;;;;;;;;;;;2210264;66;1680;-86
2024/03/04 00:38:13;;;;;;;;;;;;;;;;;;2214339;66;1673;-86
2024/03/04 00:40:43;;;;;;;;;;;;;;;;;;2213151;59;1928;-86
2024/03/04 00:43:13;;;;;;;;;;;;;;;;;;2213472;66;1446;-85
2024/03/04 00:45:44;;;;;;;;;;;;;;;;;;2213854;66;1636;-85
2024/03/04 00:48:14;;;;;;;;;;;;;;;;;;2213958;66;1755;-86
2024/03/04 00:50:44;;;;;;;;;;;;;;;;;;2213202;59;1521;-85
2024/03/04 00:53:14;;;;;;;;;;;;;;;;;;2213369;60;1612;-86
2024/03/04 00:55:44;;;;;;;;;;;;;;;;;;2213935;59;1674;-86
2024/03/04 00:58:15;;;;;;;;;;;;;;;;;;2210180;66;1640;-85
2024/03/04 01:00:45;;;;;;;;;;;;;;;;;;2213160;66;1945;-85
2024/03/04 01:03:15;;;;;;;;;;;;;;;;;;2216749;59;1489;-85
2024/03/04 01:05:46;;;;;;;;;;;;;;;;;;2218202;66;1343;-85
2024/03/04 01:08:17;;;;;;;;;;;;;;;;;;2214355;59;1676;-86
2024/03/04 01:10:47;;;;;;;;;;;;;;;;;;2214038;59;1946;-86
2024/03/04 01:13:19;;;;;;;;;;;;;;;;;;2209741;59;1608;-85
2024/03/04 01:15:49;;;;;;;;;;;;;;;;;;2214210;59;1531;-85
2024/03/04 01:18:20;;;;;;;;;;;;;;;;;;2214311;59;1552;-85
2024/03/04 01:20:52;;;;;;;;;;;;;;;;;;2212274;66;1976;-85
2024/03/04 01:23:23;;;;;;;;;;;;;;;;;;2214542;66;2290;-85
2024/03/04 01:25:54;;;;;;;;;;;;;;;;;;2212475;59;1377;-85
2024/03/04 01:28:25;;;;;;;;;;;;;;;;;;2213282;66;1643;-85
2024/03/04 01:30:55;;;;;;;;;;;;;;;;;;2213925;66;1865;-86
2024/03/04 01:33:26;;;;;;;;;;;;;;;;;;2213042;66;1893;-85
2024/03/04 01:35:56;;;;;;;;;;;;;;;;;;2213365;66;1966;-85
2024/03/04 01:38:27;;;;;;;;;;;;;;;;;;2211177;66;1468;-85
2024/03/04 01:40:57;;;;;;;;;;;;;;;;;;2213560;59;1969;-85
2024/03/04 01:43:27;;;;;;;;;;;;;;;;;;2212395;66;1509;-85
2024/03/04 01:45:57;;;;;;;;;;;;;;;;;;2212211;59;1511;-85
2024/03/04 01:48:29;;;;;;;;;;;;;;;;;;2212083;66;1631;-85
2024/03/04 01:51:00;;;;;;;;;;;;;;;;;;2212852;59;1613;-85
2024/03/04 01:53:31;;;;;;;;;;;;;;;;;;2222789;59;1300;-85
2024/03/04 01:56:03;;;;;;;;;;;;;;;;;;2223799;59;1547;-85
2024/03/04 01:58:36;;;;;;;;;;;;;;;;;;2226100;66;1682;-86
2024/03/04 02:01:06;;;;;;;;;;;;;;;;;;2215112;66;1990;-86
2024/03/04 02:03:37;;;;;;;;;;;;;;;;;;2213672;66;1394;-86
2024/03/04 02:06:08;;;;;;;;;;;;;;;;;;2213092;66;1459;-85
2024/03/04 02:08:38;;;;;;;;;;;;;;;;;;2209653;59;1411;-85
2024/03/04 02:11:08;;;;;;;;;;;;;;;;;;2212878;59;1364;-85
2024/03/04 02:13:38;;;;;;;;;;;;;;;;;;2211636;59;1657;-85
2024/03/04 02:16:09;;;;;;;;;;;;;;;;;;2212560;66;1662;-85
2024/03/04 02:18:39;;;;;;;;;;;;;;;;;;2209486;66;1714;-85
2024/03/04 02:21:11;;;;;;;;;;;;;;;;;;2212280;59;1926;-85
2024/03/04 02:23:41;;;;;;;;;;;;;;;;;;2209350;66;1544;-85
2024/03/04 02:26:11;;;;;;;;;;;;;;;;;;2212548;66;1198;-85
2024/03/04 02:28:41;;;;;;;;;;;;;;;;;;2212141;60;1697;-85
2024/03/04 02:31:13;;;;;;;;;;;;;;;;;;2209775;67;1799;-85
2024/03/04 02:33:45;;;;;;;;;;;;;;;;;;2211741;59;1807;-85
2024/03/04 02:36:15;;;;;;;;;;;;;;;;;;2213070;66;1312;-85
2024/03/04 02:38:45;;;;;;;;;;;;;;;;;;2213439;66;1292;-86
2024/03/04 02:41:16;;;;;;;;;;;;;;;;;;2211366;59;1937;-85
2024/03/04 02:43:47;;;;;;;;;;;;;;;;;;2212658;66;1659;-85
2024/03/04 02:46:18;;;;;;;;;;;;;;;;;;2211895;59;1548;-84
2024/03/04 02:48:52;;;;;;;;;;;;;;;;;;2212140;66;1517;-85
2024/03/04 02:51:22;;;;;;;;;;;;;;;;;;2212298;66;1246;-85
2024/03/04 02:53:52;;;;;;;;;;;;;;;;;;2212757;66;1219;-86
2024/03/04 02:56:22;;;;;;;;;;;;;;;;;;2213723;66;1724;-86
2024/03/04 02:58:53;;;;;;;;;;;;;;;;;;2214484;59;1244;-85
2024/03/04 03:01:23;;;;;;;;;;;;;;;;;;2218819;66;1916;-85
2024/03/04 03:03:53;;;;;;;;;;;;;;;;;;2224260;59;1591;-85
2024/03/04 03:06:28;;;;;;;;;;;;;;;;;;2223051;59;1861;-85
2024/03/04 03:08:58;;;;;;;;;;;;;;;;;;2223856;59;1355;-85
2024/03/04 03:11:29;;;;;;;;;;;;;;;;;;2221109;66;1423;-85
2024/03/04 03:13:59;;;;;;;;;;;;;;;;;;2213740;59;1447;-86
2024/03/04 03:16:30;;;;;;;;;;;;;;;;;;2210429;67;1406;-85
2024/03/04 03:19:00;;;;;;;;;;;;;;;;;;2213438;66;1899;-85
2024/03/04 03:21:30;;;;;;;;;;;;;;;;;;2211570;66;1927;-85
2024/03/04 03:24:01;;;;;;;;;;;;;;;;;;2213802;66;1625;-85
2024/03/04 03:26:31;;;;;;;;;;;;;;;;;;2210144;67;1469;-86
2024/03/04 03:29:02;;;;;;;;;;;;;;;;;;2213065;66;1664;-85
2024/03/04 03:31:32;;;;;;;;;;;;;;;;;;2210424;66;1482;-86
2024/03/04 03:34:02;;;;;;;;;;;;;;;;;;2213667;66;1304;-85
2024/03/04 03:36:32;;;;;;;;;;;;;;;;;;2209795;66;1665;-85
2024/03/04 03:39:07;;;;;;;;;;;;;;;;;;2213301;59;1823;-85
2024/03/04 03:41:38;;;;;;;;;;;;;;;;;;2210685;61;1928;-84
2024/03/04 03:44:08;;;;;;;;;;;;;;;;;;2216126;66;1431;-84
2024/03/04 03:46:38;;;;;;;;;;;;;;;;;;2214367;59;1336;-84
2024/03/04 03:49:09;;;;;;;;;;;;;;;;;;2214529;66;1425;-85
2024/03/04 03:51:39;;;;;;;;;;;;;;;;;;2217696;66;1382;-84
2024/03/04 03:54:09;;;;;;;;;;;;;;;;;;2222457;59;1553;-84
2024/03/04 03:56:40;;;;;;;;;;;;;;;;;;2222397;59;1503;-84
2024/03/04 03:59:10;;;;;;;;;;;;;;;;;;2223624;66;1335;-84
2024/03/04 04:01:41;;;;;;;;;;;;;;;;;;2223869;62;1921;-83
2024/03/04 04:04:11;;;;;;;;;;;;;;;;;;2220534;66;1269;-84
2024/03/04 04:06:41;;;;;;;;;;;;;;;;;;2224053;59;1482;-84
2024/03/04 04:09:12;;;;;;;;;;;;;;;;;;2223464;58;1336;-84
2024/03/04 04:11:43;;;;;;;;;;;;;;;;;;2217730;66;1620;-84
2024/03/04 04:14:13;;;;;;;;;;;;;;;;;;2217991;59;1726;-84
2024/03/04 04:16:43;;;;;;;;;;;;;;;;;;2216684;66;1292;-83
2024/03/04 04:19:15;;;;;;;;;;;;;;;;;;2217069;66;1433;-84
2024/03/04 04:21:45;;;;;;;;;;;;;;;;;;2216751;59;1996;-84
2024/03/04 04:24:15;;;;;;;;;;;;;;;;;;2217831;59;1584;-84
2024/03/04 04:26:46;;;;;;;;;;;;;;;;;;2216601;66;1317;-84
2024/03/04 04:29:16;;;;;;;;;;;;;;;;;;2216700;60;1388;-83
2024/03/04 04:31:46;;;;;;;;;;;;;;;;;;2214420;66;1930;-83
2024/03/04 04:34:17;;;;;;;;;;;;;;;;;;2214575;66;1363;-84
2024/03/04 04:36:49;;;;;;;;;;;;;;;;;;2217920;66;1263;-83
2024/03/04 04:39:19;;;;;;;;;;;;;;;;;;2219378;59;1786;-84
2024/03/04 04:41:50;;;;;;;;;;;;;;;;;;2223336;66;1912;-83
2024/03/04 04:44:20;;;;;;;;;;;;;;;;;;2220618;67;1542;-84
2024/03/04 04:46:50;;;;;;;;;;;;;;;;;;2218271;59;1681;-84
2024/03/04 04:49:20;;;;;;;;;;;;;;;;;;2212304;59;2507;-84
2024/03/04 04:51:50;;;;;;;;;;;;;;;;;;2213830;59;1375;-84
2024/03/04 04:54:21;;;;;;;;;;;;;;;;;;2214131;59;1249;-83
2024/03/04 04:56:51;;;;;;;;;;;;;;;;;;2213662;59;1576;-83
2024/03/04 04:59:21;;;;;;;;;;;;;;;;;;2214366;59;1494;-84
2024/03/04 05:01:51;;;;;;;;;;;;;;;;;;2210037;66;1957;-84
2024/03/04 05:04:21;;;;;;;;;;;;;;;;;;2214905;59;1289;-84
2024/03/04 05:06:52;;;;;;;;;;;;;;;;;;2215886;66;1362;-84
2024/03/04 05:09:22;;;;;;;;;;;;;;;;;;2214202;59;1531;-84
2024/03/04 05:11:53;;;;;;;;;;;;;;;;;;2214099;59;1282;-85
2024/03/04 05:14:23;;;;;;;;;;;;;;;;;;2214511;59;1361;-85
2024/03/04 05:16:55;;;;;;;;;;;;;;;;;;2216562;66;1318;-85
2024/03/04 05:19:33;;;;;;;;;;;;;;;;;;2214549;66;1681;-86
2024/03/04 05:22:05;;;;;;;;;;;;;;;;;;2213055;66;1943;-85
2024/03/04 05:24:35;;;;;;;;;;;;;;;;;;2213040;66;1324;-86
2024/03/04 05:27:06;;;;;;;;;;;;;;;;;;2209091;66;1236;-86
2024/03/04 05:29:36;;;;;;;;;;;;;;;;;;2211667;66;1683;-86
2024/03/04 05:32:06;;;;;;;;;;;;;;;;;;2211795;66;1280;-86
2024/03/04 05:34:38;;;;;;;;;;;;;;;;;;2212735;59;1793;-86
2024/03/04 05:37:08;;;;;;;;;;;;;;;;;;2211958;66;1329;-85
2024/03/04 05:39:39;;;;;;;;;;;;;;;;;;2211773;62;1885;-86
2024/03/04 05:42:09;;;;;;;;;;;;;;;;;;2212116;66;1941;-83
2024/03/04 05:44:39;;;;;;;;;;;;;;;;;;2212708;59;1313;-83
2024/03/04 05:47:09;;;;;;;;;;;;;;;;;;2214336;59;1401;-83
2024/03/04 05:49:40;;;;;;;;;;;;;;;;;;2213573;66;1153;-83
2024/03/04 05:52:10;;;;;;;;;;;;;;;;;;2213528;66;1274;-84
2024/03/04 05:54:40;;;;;;;;;;;;;;;;;;2213538;59;1523;-83
2024/03/04 05:57:10;;;;;;;;;;;;;;;;;;2212609;66;1352;-83
2024/03/04 05:59:40;;;;;;;;;;;;;;;;;;2213599;59;1105;-83
2024/03/04 06:02:11;;;;;;;;;;;;;;;;;;2213589;59;1944;-83
2024/03/04 06:04:41;;;;;;;;;;;;;;;;;;2212702;59;1644;-86
2024/03/04 06:07:11;;;;;;;;;;;;;;;;;;2212461;66;1547;-85
2024/03/04 06:09:42;;;;;;;;;;;;;;;;;;2211631;59;1329;-86
2024/03/04 06:12:13;;;;;;;;;;;;;;;;;;2212434;66;1245;-86
2024/03/04 06:14:43;;;;;;;;;;;;;;;;;;2212599;59;1349;-86
2024/03/04 06:17:13;;;;;;;;;;;;;;;;;;2213163;66;1182;-86
2024/03/04 06:19:43;;;;;;;;;;;;;;;;;;2210286;67;1719;-83
2024/03/04 06:22:14;;;;;;;;;;;;;;;;;;2212893;66;2329;-83
2024/03/04 06:24:44;;;;;;;;;;;;;;;;;;2214055;66;1641;-83
2024/03/04 06:27:14;;;;;;;;;;;;;;;;;;2211267;66;1420;-84
2024/03/04 06:29:44;;;;;;;;;;;;;;;;;;2213955;66;1175;-83
2024/03/04 06:32:14;;;;;;;;;;;;;;;;;;2215017;66;1742;-83
2024/03/04 06:34:45;;;;;;;;;;;;;;;;;;2214062;59;1743;-83
2024/03/04 06:37:16;;;;;;;;;;;;;;;;;;2213865;66;1323;-83
2024/03/04 06:39:46;;;;;;;;;;;;;;;;;;2213793;59;1804;-83
2024/03/04 06:42:16;;;;;;;;;;;;;;;;;;2214507;59;1935;-83
2024/03/04 06:44:47;;;;;;;;;;;;;;;;;;2214204;59;1534;-83
2024/03/04 06:47:17;;;;;;;;;;;;;;;;;;2214252;59;1297;-83
2024/03/04 06:49:48;;;;;;;;;;;;;;;;;;2214663;59;1362;-85
2024/03/04 06:52:18;;;;;;;;;;;;;;;;;;2214295;58;1813;-83
2024/03/04 06:54:49;;;;;;;;;;;;;;;;;;2219648;58;1110;-83
2024/03/04 06:57:20;;;;;;;;;;;;;;;;;;2226488;66;1250;-83
2024/03/04 06:59:51;;;;;;;;;;;;;;;;;;2221258;66;1316;-83
2024/03/04 07:02:21;;;;;;;;;;;;;;;;;;2217633;59;1998;-84
2024/03/04 07:04:51;;;;;;;;;;;;;;;;;;2215056;59;1249;-83
2024/03/04 07:07:21;;;;;;;;;;;;;;;;;;2216784;66;1472;-83
2024/03/04 07:09:52;;;;;;;;;;;;;;;;;;2214681;59;1488;-83
2024/03/04 07:12:22;;;;;;;;;;;;;;;;;;2214381;66;1485;-83
2024/03/04 07:14:52;;;;;;;;;;;;;;;;;;2210892;59;1511;-83
2024/03/04 07:17:23;;;;;;;;;;;;;;;;;;2214647;66;1541;-82
2024/03/04 07:19:53;;;;;;;;;;;;;;;;;;2214602;66;1293;-86
2024/03/04 07:22:23;;;;;;;;;;;;;;;;;;2214480;66;1929;-86
2024/03/04 07:24:53;;;;;;;;;;;;;;;;;;2211838;59;1329;-85
2024/03/04 07:27:23;;;;;;;;;;;;;;;;;;2214679;59;1410;-86
2024/03/04 07:29:54;;;;;;;;;;;;;;;;;;2213705;66;1520;-85
2024/03/04 07:32:24;;;;;;;;;;;;;;;;;;2214459;66;1412;-86
2024/03/04 07:34:54;;;;;;;;;;;;;;;;;;2216432;59;1725;-86
2024/03/04 07:37:24;;;;;;;;;;;;;;;;;;2218899;59;1102;-85
2024/03/04 07:39:54;;;;;;;;;;;;;;;;;;2222926;59;1689;-86
2024/03/04 07:42:25;;;;;;;;;;;;;;;;;;2223555;66;1979;-86
2024/03/04 07:44:55;;;;;;;;;;;;;;;;;;2223480;59;1129;-86
2024/03/04 07:47:26;;;;;;;;;;;;;;;;;;2219463;66;1336;-86
2024/03/04 07:49:57;;;;;;;;;;;;;;;;;;2218656;66;1064;-86
2024/03/04 07:52:27;;;;;;;;;;;;;;;;;;2214813;59;1842;-86
2024/03/04 07:54:58;;;;;;;;;;;;;;;;;;2214207;59;1464;-85
2024/03/04 07:57:28;;;;;;;;;;;;;;;;;;2214883;59;1344;-86
2024/03/04 07:59:58;;;;;;;;;;;;;;;;;;2217662;66;1123;-84
2024/03/04 08:02:28;;;;;;;;;;;;;;;;;;2215519;59;1939;-83
2024/03/04 08:04:58;;;;;;;;;;;;;;;;;;2220297;59;2243;-84
2024/03/04 08:07:28;;;;;;;;;;;;;;;;;;2221792;59;2253;-84
2024/03/04 08:09:59;;;;;;;;;;;;;;;;;;2222028;59;2091;-84
2024/03/04 08:12:29;;;;;;;;;;;;;;;;;;2219403;59;1969;-84
2024/03/04 08:14:59;;;;;;;;;;;;;;;;;;2221233;59;2121;-85
2024/03/04 08:17:29;;;;;;;;;;;;;;;;;;2209536;59;2317;-84
2024/03/04 08:20:00;;;;;;;;;;;;;;;;;;2211148;59;2110;-84
2024/03/04 08:22:32;;;;;;;;;;;;;;;;;;2214018;59;2888;-84
2024/03/04 08:25:03;;;;;;;;;;;;;;;;;;2211441;59;2199;-84
2024/03/04 08:27:33;;;;;;;;;;;;;;;;;;2210620;59;2041;-84
2024/03/04 08:30:04;;;;;;;;;;;;;;;;;;2223738;59;2111;-83
2024/03/04 08:32:34;;;;;;;;;;;;;;;;;;2214206;59;2165;-83
2024/03/04 08:35:05;;;;;;;;;;;;;;;;;;2213061;59;2683;-83
2024/03/04 08:37:35;;;;;;;;;;;;;;;;;;2214264;59;2273;-83
2024/03/04 08:40:06;;;;;;;;;;;;;;;;;;2213000;59;2143;-86
2024/03/04 08:42:37;;;;;;;;;;;;;;;;;;2214255;59;2070;-87
2024/03/04 08:45:08;;;;;;;;;;;;;;;;;;2209861;59;2073;-86
2024/03/04 08:47:39;;;;;;;;;;;;;;;;;;2212244;59;2515;-86
2024/03/04 08:50:09;;;;;;;;;;;;;;;;;;2210092;59;2052;-86
2024/03/04 08:52:39;;;;;;;;;;;;;;;;;;2212998;59;2217;-86
2024/03/04 08:55:09;;;;;;;;;;;;;;;;;;2212375;59;2201;-86
2024/03/04 08:57:40;;;;;;;;;;;;;;;;;;2215552;59;2031;-86
2024/03/04 09:00:10;;;;;;;;;;;;;;;;;;2211910;59;2498;-86
2024/03/04 09:02:42;;;;;;;;;;;;;;;;;;2213017;59;2284;-86
2024/03/04 09:05:12;;;;;;;;;;;;;;;;;;2212183;59;2467;-86
2024/03/04 09:07:42;;;;;;;;;;;;;;;;;;2211995;59;1440;-85
2024/03/04 09:10:15;;;;;;;;;;;;;;;;;;2209665;59;2140;-86
2024/03/04 09:12:46;;;;;;;;;;;;;;;;;;2214610;59;2061;-84
2024/03/04 09:15:17;;;;;;;;;;;;;;;;;;2214462;59;2553;-83
2024/03/04 09:17:47;;;;;;;;;;;;;;;;;;2214507;59;2103;-83
2024/03/04 09:20:17;;;;;;;;;;;;;;;;;;2214536;59;1258;-84
2024/03/04 09:22:48;;;;;;;;;;;;;;;;;;2213668;59;2046;-83
2024/03/04 09:25:18;;;;;;;;;;;;;;;;;;2216771;59;1979;-83
2024/03/04 09:27:48;;;;;;;;;;;;;;;;;;2218218;66;1206;-84
2024/03/04 09:30:19;;;;;;;;;;;;;;;;;;2215623;59;2100;-83
2024/03/04 09:32:49;;;;;;;;;;;;;;;;;;2211005;59;2026;-84
2024/03/04 09:35:19;;;;;;;;;;;;;;;;;;2215512;59;2028;-82
2024/03/04 09:37:49;;;;;;;;;;;;;;;;;;2215739;66;1594;-83
2024/03/04 09:40:19;;;;;;;;;;;;;;;;;;2213788;59;2265;-83
2024/03/04 09:42:50;;;;;;;;;;;;;;;;;;2214683;66;1936;-82
2024/03/04 09:45:21;;;;;;;;;;;;;;;;;;2213395;59;2034;-83
2024/03/04 09:47:54;;;;;;;;;;;;;;;;;;2210426;59;2156;-84
2024/03/04 09:50:25;;;;;;;;;;;;;;;;;;2221386;59;2274;-84
2024/03/04 09:52:58;;;;;;;;;;;;;;;;;;2224714;59;1981;-84
2024/03/04 09:55:28;;;;;;;;;;;;;;;;;;2217787;59;2167;-85
2024/03/04 09:57:59;;;;;;;;;;;;;;;;;;2210439;67;2511;-84
2024/03/04 10:00:30;;;;;;;;;;;;;;;;;;2212268;59;2122;-84
2024/03/04 10:03:00;;;;;;;;;;;;;;;;;;2212132;59;2004;-82
2024/03/04 10:05:31;;;;;;;;;;;;;;;;;;2213718;60;1673;-81
2024/03/04 10:08:02;;;;;;;;;;;;;;;;;;2213989;59;1485;-82
2024/03/04 10:10:33;;;;;;;;;;;;;;;;;;2214446;59;1142;-81
2024/03/04 10:13:10;;;;;;;;;;;;;;;;;;2210218;67;1347;-84
2024/03/04 10:15:40;;;;;;;;;;;;;;;;;;2214523;59;1370;-84
2024/03/04 10:18:11;;;;;;;;;;;;;;;;;;2212948;66;1669;-84
2024/03/04 10:20:42;;;;;;;;;;;;;;;;;;2213101;66;1186;-84
2024/03/04 10:23:12;;;;;;;;;;;;;;;;;;2210304;67;2336;-81
2024/03/04 10:25:43;;;;;;;;;;;;;;;;;;2216781;58;2164;-82
2024/03/04 10:28:14;;;;;;;;;;;;;;;;;;2212798;59;1290;-81
2024/03/04 10:30:45;;;;;;;;;;;;;;;;;;2215016;66;1225;-82
2024/03/04 10:33:18;;;;;;;;;;;;;;;;;;2214420;66;2119;-81
2024/03/04 10:35:51;;;;;;;;;;;;;;;;;;2224742;66;1064;-82
2024/03/04 10:38:21;;;;;;;;;;;;;;;;;;2220627;59;1456;-82
2024/03/04 10:40:51;;;;;;;;;;;;;;;;;;2214831;59;1966;-82
2024/03/04 10:43:21;;;;;;;;;;;;;;;;;;2211537;59;1321;-82
2024/03/04 10:45:51;;;;;;;;;;;;;;;;;;2213422;59;1364;-82
2024/03/04 10:48:22;;;;;;;;;;;;;;;;;;2215636;59;1389;-81
2024/03/04 10:50:54;;;;;;;;;;;;;;;;;;2214308;59;1590;-82
2024/03/04 10:53:24;;;;;;;;;;;;;;;;;;2211441;59;1693;-82
2024/03/04 10:56:00;;;;;;;;;;;;;;;;;;2214757;59;1416;-82
2024/03/04 10:58:31;;;;;;;;;;;;;;;;;;2215696;59;1754;-82
2024/03/04 11:01:07;;;;;;;;;;;;;;;;;;2216664;66;1937;-82
2024/03/04 11:03:42;;;;;;;;;;;;;;;;;;2216851;66;1297;-80
2024/03/04 11:06:22;;;;;;;;;;;;;;;;;;2214972;59;2204;-81
2024/03/04 11:08:56;;;;;;;;;;;;;;;;;;2211630;59;2122;-82
2024/03/04 11:11:30;;;;;;;;;;;;;;;;;;2211299;59;2047;-82
2024/03/04 11:14:14;;;;;;;;;;;;;;;;;;2210551;59;2412;-82
2024/03/04 11:16:58;;;;;;;;;;;;;;;;;;2213539;59;2084;-81
2024/03/04 11:19:32;;;;;;;;;;;;;;;;;;2211434;59;2063;-82
2024/03/04 11:22:03;;;;;;;;;;;;;;;;;;2215017;66;1933;-82
2024/03/04 11:24:34;;;;;;;;;;;;;;;;;;2214639;59;1303;-82
2024/03/04 11:27:04;;;;;;;;;;;;;;;;;;2214563;59;2237;-82
2024/03/04 11:29:36;;;;;;;;;;;;;;;;;;2211386;66;1564;-82
2024/03/04 11:32:09;;;;;;;;;;;;;;;;;;2212394;66;2142;-81
2024/03/04 11:35:10;;;;;;;;;;;;;;;;;;2215778;59;1748;-82
2024/03/04 11:37:50;;;;;;;;;;;;;;;;;;2217779;59;1381;-82
2024/03/04 11:40:24;;;;;;;;;;;;;;;;;;2220750;59;1755;-82
2024/03/04 11:42:54;;;;;;;;;;;;;;;;;;2214051;59;2396;-82
2024/03/04 11:45:36;;;;;;;;;;;;;;;;;;2214023;66;1454;-82
2024/03/04 11:48:25;;;;;;;;;;;;;;;;;;2220775;59;1563;-82
2024/03/04 11:50:56;;;;;;;;;;;;;;;;;;2223254;59;1554;-82
2024/03/04 11:53:27;;;;;;;;;;;;;;;;;;2215437;66;1195;-82
2024/03/04 11:55:57;;;;;;;;;;;;;;;;;;2217351;59;1195;-81
2024/03/04 11:58:28;;;;;;;;;;;;;;;;;;2216702;66;1281;-82
2024/03/04 12:01:00;;;;;;;;;;;;;;;;;;2214521;66;1926;-83
2024/03/04 12:03:30;;;;;;;;;;;;;;;;;;2218107;59;1629;-83
2024/03/04 12:06:01;;;;;;;;;;;;;;;;;;2214680;59;1379;-82
2024/03/04 12:08:31;;;;;;;;;;;;;;;;;;2220827;59;1247;-83
2024/03/04 12:11:02;;;;;;;;;;;;;;;;;;2216360;66;1324;-82
2024/03/04 12:13:35;;;;;;;;;;;;;;;;;;2215382;59;2223;-82
2024/03/04 12:16:06;;;;;;;;;;;;;;;;;;2216381;66;1381;-82
2024/03/04 12:18:36;;;;;;;;;;;;;;;;;;2217377;61;1140;-80
2024/03/04 12:21:06;;;;;;;;;;;;;;;;;;2217560;66;1943;-82
2024/03/04 12:23:37;;;;;;;;;;;;;;;;;;2213624;66;1273;-82
2024/03/04 12:26:11;;;;;;;;;;;;;;;;;;2217559;59;1354;-82
2024/03/04 12:28:41;;;;;;;;;;;;;;;;;;2218852;66;1297;-82
2024/03/04 12:31:12;;;;;;;;;;;;;;;;;;2217259;66;1226;-82
2024/03/04 12:33:42;;;;;;;;;;;;;;;;;;2217407;59;1329;-83
2024/03/04 12:36:12;;;;;;;;;;;;;;;;;;2218085;66;1211;-82
2024/03/04 12:38:42;;;;;;;;;;;;;;;;;;2218043;59;1623;-82
2024/03/04 12:41:17;;;;;;;;;;;;;;;;;;2218634;59;1982;-82
2024/03/04 12:43:48;;;;;;;;;;;;;;;;;;2223601;66;1097;-82
2024/03/04 12:46:19;;;;;;;;;;;;;;;;;;2225919;59;1560;-83
2024/03/04 12:48:50;;;;;;;;;;;;;;;;;;2217833;66;1281;-82
2024/03/04 12:51:20;;;;;;;;;;;;;;;;;;2217569;59;1402;-82
2024/03/04 12:53:51;;;;;;;;;;;;;;;;;;2216586;66;1324;-82
2024/03/04 12:56:21;;;;;;;;;;;;;;;;;;2216738;59;1692;-82
2024/03/04 12:58:52;;;;;;;;;;;;;;;;;;2216541;59;1215;-83
2024/03/04 13:01:23;;;;;;;;;;;;;;;;;;2216466;59;1921;-83
2024/03/04 13:03:54;;;;;;;;;;;;;;;;;;2213272;67;1218;-82
2024/03/04 13:06:24;;;;;;;;;;;;;;;;;;2213485;66;1422;-82
2024/03/04 13:08:55;;;;;;;;;;;;;;;;;;2209712;59;1607;-82
2024/03/04 13:11:27;;;;;;;;;;;;;;;;;;2215926;66;1513;-82
2024/03/04 13:13:57;;;;;;;;;;;;;;;;;;2213417;66;2272;-82
2024/03/04 13:16:27;;;;;;;;;;;;;;;;;;2213761;59;1610;-82
2024/03/04 13:18:58;;;;;;;;;;;;;;;;;;2216829;66;1095;-82
2024/03/04 13:21:29;;;;;;;;;;;;;;;;;;2221318;59;1927;-82
2024/03/04 13:23:59;;;;;;;;;;;;;;;;;;2213907;66;2285;-82
2024/03/04 13:26:30;;;;;;;;;;;;;;;;;;2216873;66;1563;-82
2024/03/04 13:29:00;;;;;;;;;;;;;;;;;;2226117;53;3655;-21
2024/03/04 13:31:30;;;;;;;;;;;;;;;;;;2207558;66;2450;-21
2024/03/04 13:34:00;;;;;;;;;;;;;;;;;;2206194;59;1910;-20
2024/03/04 13:36:31;;;;;;;;;;;;;;;;;;2207419;66;1842;-21
2024/03/04 13:39:02;;;;;;;;;;;;;;;;;;2205357;58;2066;-21
2024/03/04 13:41:32;;;;;;;;;;;;;;;;;;2204706;66;1941;-21
2024/03/04 13:44:03;;;;;;;;;;;;;;;;;;2209018;66;2834;-19
2024/03/04 13:46:35;;;;;;;;;;;;;;;;;;2205073;59;1936;-20
2024/03/04 13:49:07;;;;;;;;;;;;;;;;;;2204844;66;1828;-21
2024/03/04 13:51:37;;;;;;;;;;;;;;;;;;2208604;66;2102;-19
2024/03/04 13:54:08;;;;;;;;;;;;;;;;;;2202905;66;1870;-21
2024/03/04 13:56:39;;;;;;;;;;;;;;;;;;2208046;58;1878;-20
2024/03/04 13:59:11;;;;;;;;;;;;;;;;;;2206081;66;2178;-21
2024/03/04 14:01:41;;;;;;;;;;;;;;;;;;2205063;66;2032;-21
2024/03/04 14:04:12;;;;;;;;;;;;;;;;;;2208024;66;1897;-21
2024/03/04 14:06:43;;;;;;;;;;;;;;;;;;2208134;66;2293;-21
2024/03/04 14:09:16;;;;;;;;;;;;;;;;;;2208661;58;1836;-20
2024/03/04 14:11:46;;;;;;;;;;;;;;;;;;2209337;66;2092;-20
2024/03/04 14:14:17;;;;;;;;;;;;;;;;;;2208165;58;1979;-21
2024/03/04 14:16:48;;;;;;;;;;;;;;;;;;2206142;66;2008;-20
2024/03/04 14:19:18;;;;;;;;;;;;;;;;;;2206604;59;2193;-20
2024/03/04 14:21:48;;;;;;;;;;;;;;;;;;2204727;59;1955;-20
2024/03/04 14:24:19;;;;;;;;;;;;;;;;;;2204671;66;1981;-21
2024/03/04 14:26:49;;;;;;;;;;;;;;;;;;2205549;66;2054;-20
2024/03/04 14:29:19;;;;;;;;;;;;;;;;;;2204327;59;1818;-20
2024/03/04 14:31:51;;;;;;;;;;;;;;;;;;2208228;66;1791;-20
2024/03/04 14:34:22;;;;;;;;;;;;;;;;;;2205341;59;2205;-20
2024/03/04 14:36:55;;;;;;;;;;;;;;;;;;2206338;66;1843;-20
2024/03/04 14:39:25;;;;;;;;;;;;;;;;;;2205083;58;3265;-20
2024/03/04 14:41:56;;;;;;;;;;;;;;;;;;2207879;66;1977;-21
2024/03/04 14:44:26;;;;;;;;;;;;;;;;;;2208035;58;1915;-20
2024/03/04 14:46:56;;;;;;;;;;;;;;;;;;2209252;58;1907;-21
2024/03/04 14:49:26;;;;;;;;;;;;;;;;;;2205023;66;1830;-20
2024/03/04 14:51:56;;;;;;;;;;;;;;;;;;2206302;59;1839;-21
2024/03/04 14:54:27;;;;;;;;;;;;;;;;;;2208647;59;1943;-21
2024/03/04 14:56:57;;;;;;;;;;;;;;;;;;2209136;66;2024;-20
2024/03/04 14:59:27;;;;;;;;;;;;;;;;;;2202508;59;2755;-20
2024/03/04 15:01:57;;;;;;;;;;;;;;;;;;2205969;66;1945;-21
2024/03/04 15:04:28;;;;;;;;;;;;;;;;;;2205437;66;1904;-21
2024/03/04 15:06:58;;;;;;;;;;;;;;;;;;2205925;66;2003;-20
2024/03/04 15:09:28;;;;;;;;;;;;;;;;;;2204774;66;1754;-21
2024/03/04 15:11:59;;;;;;;;;;;;;;;;;;2209390;58;1834;-20
2024/03/04 15:14:31;;;;;;;;;;;;;;;;;;2202052;59;2270;-21
2024/03/04 15:17:05;;;;;;;;;;;;;;;;;;2205011;66;2284;-21
2024/03/04 15:19:37;;;;;;;;;;;;;;;;;;2209200;58;2067;-21
2024/03/04 15:22:07;;;;;;;;;;;;;;;;;;2209148;66;1941;-21
2024/03/04 15:24:37;;;;;;;;;;;;;;;;;;2209476;58;2518;-21
2024/03/04 15:27:08;;;;;;;;;;;;;;;;;;2209014;66;2697;-21
2024/03/04 15:29:38;;;;;;;;;;;;;;;;;;2209572;58;2242;-20
2024/03/04 15:32:08;;;;;;;;;;;;;;;;;;2209397;66;2492;-20
2024/03/04 15:34:38;;;;;;;;;;;;;;;;;;2207689;59;2363;-21
2024/03/04 15:37:10;;;;;;;;;;;;;;;;;;2206061;66;2749;-21
2024/03/04 15:39:41;;;;;;;;;;;;;;;;;;2209950;58;1852;-21
2024/03/04 15:42:11;;;;;;;;;;;;;;;;;;2206053;66;2079;-20
2024/03/04 15:44:41;;;;;;;;;;;;;;;;;;2209784;58;1744;-20
2024/03/04 15:47:11;;;;;;;;;;;;;;;;;;2209080;59;2482;-21
2024/03/04 15:49:41;;;;;;;;;;;;;;;;;;2207161;66;3073;-21
2024/03/04 15:52:12;;;;;;;;;;;;;;;;;;2209108;59;1782;-21
2024/03/04 15:54:42;;;;;;;;;;;;;;;;;;2205065;59;1777;-21
2024/03/04 15:57:12;;;;;;;;;;;;;;;;;;2209201;66;2358;-21
2024/03/04 15:59:42;;;;;;;;;;;;;;;;;;2210103;66;2454;-21
2024/03/04 16:02:13;;;;;;;;;;;;;;;;;;2209176;59;2019;-21
2024/03/04 16:04:47;;;;;;;;;;;;;;;;;;2209719;58;2222;-21
2024/03/04 16:07:17;;;;;;;;;;;;;;;;;;2208974;66;1765;-20
2024/03/04 16:09:48;;;;;;;;;;;;;;;;;;2204219;66;1577;-20
2024/03/04 16:12:18;;;;;;;;;;;;;;;;;;2207355;66;2205;-20
2024/03/04 16:14:48;;;;;;;;;;;;;;;;;;2207627;59;1809;-21
2024/03/04 16:17:18;;;;;;;;;;;;;;;;;;2209403;66;1185;-20
2024/03/04 16:19:48;;;;;;;;;;;;;;;;;;2206787;59;2046;-20
2024/03/04 16:22:19;;;;;;;;;;;;;;;;;;2206580;59;2221;-20
2024/03/04 16:24:50;;;;;;;;;;;;;;;;;;2206564;58;2482;-20
2024/03/04 16:27:20;;;;;;;;;;;;;;;;;;2208696;58;2145;-20
2024/03/04 16:29:50;;;;;;;;;;;;;;;;;;2203915;59;1995;-20
2024/03/04 16:32:20;;;;;;;;;;;;;;;;;;2209417;58;2186;-20
2024/03/04 16:34:51;;;;;;;;;;;;;;;;;;2208972;58;1755;-21
2024/03/04 16:37:21;;;;;;;;;;;;;;;;;;2208421;58;1752;-20
2024/03/04 16:39:51;;;;;;;;;;;;;;;;;;2208444;58;2931;-21
2024/03/04 16:42:22;;;;;;;;;;;;;;;;;;2208713;58;2268;-20
2024/03/04 16:44:52;;;;;;;;;;;;;;;;;;2205166;58;1798;-20
2024/03/04 16:47:22;;;;;;;;;;;;;;;;;;2208429;59;2194;-20
2024/03/04 16:49:52;;;;;;;;;;;;;;;;;;2208736;58;2358;-20
2024/03/04 16:52:23;;;;;;;;;;;;;;;;;;2203720;66;2770;-21
2024/03/04 16:54:53;;;;;;;;;;;;;;;;;;2205442;59;2252;-20
2024/03/04 16:57:23;;;;;;;;;;;;;;;;;;2208612;59;1994;-20
2024/03/04 16:59:53;;;;;;;;;;;;;;;;;;2207912;59;1740;-20
2024/03/04 17:02:23;;;;;;;;;;;;;;;;;;2208796;58;1932;-19
2024/03/04 17:04:54;;;;;;;;;;;;;;;;;;2204594;58;2545;-21
2024/03/04 17:07:24;;;;;;;;;;;;;;;;;;2205423;59;1701;-20
2024/03/04 17:09:54;;;;;;;;;;;;;;;;;;2207780;66;1615;-20
2024/03/04 17:12:26;;;;;;;;;;;;;;;;;;2208060;66;1597;-21
2024/03/04 17:14:57;;;;;;;;;;;;;;;;;;2205267;59;2232;-21
2024/03/04 17:17:29;;;;;;;;;;;;;;;;;;2208058;66;1610;-21
2024/03/04 17:19:59;;;;;;;;;;;;;;;;;;2205378;66;1434;-21
2024/03/04 17:22:29;;;;;;;;;;;;;;;;;;2205435;66;2033;-19
2024/03/04 17:25:01;;;;;;;;;;;;;;;;;;2208857;66;2096;-19
2024/03/04 17:27:33;;;;;;;;;;;;;;;;;;2208164;66;1555;-18